This is the latest recevied weather packets stored in our database for station/object DH5DY. If no packets are shown the sender has not sent any weather packets the latest 10 day(s).
| Time | Temp. | Humidity | Pressure | Rain* | Wind** | Luminosity | Snow |
|---|---|---|---|---|---|---|---|
| 1788571814 | 13.33° C | 94% | 1015.4 hPa | 0 mm | - | 0 W/m² | - |
| 1788566413 | 14.44° C | 94% | 1015.2 hPa | 0 mm | - | 0 W/m² | - |
| 1788565513 | 14.44° C | 94% | 1015.1 hPa | 0 mm | - | 0 W/m² | - |
| 1788563712 | 14.44° C | 94% | 1015 hPa | 0 mm | - | 0 W/m² | - |
| 1788557414 | 14.44° C | 93% | 1014.2 hPa | 0 mm | - | 0 W/m² | - |
| 1788556514 | 14.44° C | 93% | 1014.1 hPa | 0 mm | - | 0 W/m² | - |
| 1788550212 | 13.89° C | 92% | 1013.5 hPa | 0 mm | - | 0 W/m² | - |
| 1788549312 | 13.89° C | 91% | 1013.3 hPa | 0.51 mm | - | 0 W/m² | - |
| 1788527714 | 23.89° C | 71% | 1009.9 hPa | 0 mm | - | 97 W/m² | - |
| 1788523213 | 23.33° C | 75% | 1010.2 hPa | 0 mm | - | 181 W/m² | - |
| 1788517834 | 22.22° C | 82% | 1011.1 hPa | 0 mm | - | 148 W/m² | - |
| 1788510611 | 20° C | 88% | 1011.7 hPa | 0 mm | - | 70 W/m² | - |
| 1788497115 | 17.78° C | 92% | 1013.9 hPa | 0 mm | - | 0 W/m² | - |
| 1788489914 | 17.78° C | 93% | 1015 hPa | 0.25 mm | - | 0 W/m² | - |
| 1788489015 | 17.78° C | 93% | 1015.1 hPa | 0.25 mm | - | 0 W/m² | - |
| 1788484513 | 17.78° C | 93% | 1015.6 hPa | 0.51 mm | - | 0 W/m² | - |
| 1788480011 | 17.78° C | 92% | 1016.2 hPa | 0 mm | - | 0 W/m² | - |
| 1788468315 | 18.33° C | 88% | 1017.4 hPa | 0 mm | - | 0 W/m² | - |
| 1788463814 | 18.33° C | 86% | 1017.4 hPa | 0 mm | - | 0 W/m² | - |
| 1788453012 | 19.44° C | 83% | 1016.9 hPa | 0 mm | - | 118 W/m² | - |
| 1788432315 | 15.56° C | 90% | 1017.1 hPa | 3.05 mm | - | 255 W/m² | - |
| 1788423313 | 15.56° C | 86% | 1017.6 hPa | 0 mm | - | 174 W/m² | - |
| 1788413413 | 11.11° C | 92% | 1017.9 hPa | 0 mm | - | 30 W/m² | - |
| 1788412512 | 11.11° C | 92% | 1017.6 hPa | 0 mm | - | 19 W/m² | - |
| 1788398115 | 10.56° C | 93% | 1019.1 hPa | 0 mm | - | 0 W/m² | - |
* Rain latest hour (hover to see other rain measurements)
** Current wind speed in m/s (hover to see current wind gust speed)